This is the latest recevied weather packets stored in our database for station/object WBGG. If no packets are shown the sender has not sent any weather packets the latest 10 day(s).
| Time | Temp. | Humidity | Pressure | Rain* | Wind** | Luminosity | Snow |
|---|---|---|---|---|---|---|---|
| 1788156873 | 33.89° C | 59% | 1010 hPa | - | - | - | - |
| 1788155048 | 32.78° C | 62% | 1010 hPa | - | - | - | - |
| 1788153265 | 32.78° C | 62% | 1011 hPa | - | - | - | - |
| 1788151446 | 31.67° C | 62% | 1011 hPa | - | - | - | - |
| 1788149664 | 31.67° C | 62% | 1012 hPa | - | - | - | - |
| 1788147853 | 30.56° C | 62% | 1012 hPa | - | - | - | - |
| 1788146064 | 30.56° C | 66% | 1012 hPa | - | - | - | - |
| 1788144247 | 30° C | 70% | 1013 hPa | - | - | - | - |
| 1788142465 | 27.78° C | 78% | 1013 hPa | - | - | - | - |
| 1788140647 | 27.78° C | 83% | 1013 hPa | - | - | - | - |
| 1788138874 | 26.67° C | 88% | 1013 hPa | - | - | - | - |
| 1788137047 | 25.56° C | 94% | 1013 hPa | - | - | - | - |
| 1788135265 | 25.56° C | 94% | 1012 hPa | - | - | - | - |
| 1788133450 | 25° C | 10% | - | - | - | - | - |
| 1788131664 | 25° C | 10% | - | - | - | - | - |
| 1788129847 | 25° C | 10% | - | - | - | - | - |
| 1788128065 | 25.56° C | 94% | 1011 hPa | - | - | - | - |
| 1788126246 | 25.56° C | 94% | 1011 hPa | - | - | - | - |
| 1788124465 | 25.56° C | 94% | 1011 hPa | - | - | - | - |
| 1788122646 | 26.67° C | 88% | 1011 hPa | - | - | - | - |
| 1788120874 | 26.67° C | 88% | 1011 hPa | - | - | - | - |
| 1788119052 | 26.67° C | 94% | 1011 hPa | - | - | - | - |
| 1788117264 | 26.67° C | 94% | 1011 hPa | - | - | - | - |
| 1788115446 | 26.67° C | 88% | 1011 hPa | - | - | - | - |
| 1788113664 | 26.67° C | 94% | 1011 hPa | - | - | - | - |
* Rain since midnight (hover to see other rain measurements)
** Current wind speed in m/s (hover to see current wind gust speed)